sensor_id;sensor_type;location;lat;lon;timestamp;P1;durP1;ratioP1;P2;durP2;ratioP2
11422;SDS011;5768;51.476;7.210;2024-03-23T00:52:22;10.10;;;4.10;;
11422;SDS011;5768;51.476;7.210;2024-03-23T00:57:25;12.57;;;4.23;;
11422;SDS011;5768;51.476;7.210;2024-03-23T01:02:30;10.70;;;3.30;;
11422;SDS011;5768;51.476;7.210;2024-03-23T01:07:32;8.17;;;2.70;;
11422;SDS011;5768;51.476;7.210;2024-03-23T01:12:34;10.20;;;3.27;;
11422;SDS011;5768;51.476;7.210;2024-03-23T01:17:38;9.03;;;3.50;;
11422;SDS011;5768;51.476;7.210;2024-03-23T01:22:40;15.00;;;4.07;;
11422;SDS011;5768;51.476;7.210;2024-03-23T01:27:42;11.07;;;3.70;;
11422;SDS011;5768;51.476;7.210;2024-03-23T01:32:46;11.87;;;4.30;;
11422;SDS011;5768;51.476;7.210;2024-03-23T01:37:48;12.23;;;4.20;;
11422;SDS011;5768;51.476;7.210;2024-03-23T01:42:56;9.40;;;3.53;;
11422;SDS011;5768;51.476;7.210;2024-03-23T01:48:01;10.93;;;3.60;;
11422;SDS011;5768;51.476;7.210;2024-03-23T01:53:04;8.43;;;2.63;;
11422;SDS011;5768;51.476;7.210;2024-03-23T01:58:07;8.43;;;2.73;;
11422;SDS011;5768;51.476;7.210;2024-03-23T02:03:23;8.10;;;2.90;;
11422;SDS011;5768;51.476;7.210;2024-03-23T02:08:26;7.10;;;3.07;;
11422;SDS011;5768;51.476;7.210;2024-03-23T02:13:29;6.33;;;2.60;;
11422;SDS011;5768;51.476;7.210;2024-03-23T02:18:33;6.77;;;2.23;;
11422;SDS011;5768;51.476;7.210;2024-03-23T02:23:37;7.13;;;2.40;;
11422;SDS011;5768;51.476;7.210;2024-03-23T02:28:39;6.20;;;2.67;;
11422;SDS011;5768;51.476;7.210;2024-03-23T02:33:41;8.77;;;2.90;;
11422;SDS011;5768;51.476;7.210;2024-03-23T02:38:44;6.40;;;2.60;;
11422;SDS011;5768;51.476;7.210;2024-03-23T02:43:48;7.20;;;2.90;;
11422;SDS011;5768;51.476;7.210;2024-03-23T02:48:50;5.20;;;2.50;;
11422;SDS011;5768;51.476;7.210;2024-03-23T02:53:54;8.63;;;2.97;;
11422;SDS011;5768;51.476;7.210;2024-03-23T02:58:56;6.53;;;2.27;;
11422;SDS011;5768;51.476;7.210;2024-03-23T03:03:58;7.50;;;2.73;;
11422;SDS011;5768;51.476;7.210;2024-03-23T03:09:03;8.10;;;2.70;;
11422;SDS011;5768;51.476;7.210;2024-03-23T03:14:06;6.80;;;2.50;;
11422;SDS011;5768;51.476;7.210;2024-03-23T03:19:08;7.20;;;2.80;;
11422;SDS011;5768;51.476;7.210;2024-03-23T03:24:12;7.97;;;2.50;;
11422;SDS011;5768;51.476;7.210;2024-03-23T03:29:14;6.10;;;2.37;;
11422;SDS011;5768;51.476;7.210;2024-03-23T03:34:16;5.90;;;2.37;;
11422;SDS011;5768;51.476;7.210;2024-03-23T03:39:19;7.07;;;2.80;;
11422;SDS011;5768;51.476;7.210;2024-03-23T03:44:22;5.70;;;2.60;;
11422;SDS011;5768;51.476;7.210;2024-03-23T03:49:25;9.47;;;2.70;;
11422;SDS011;5768;51.476;7.210;2024-03-23T03:54:29;7.57;;;2.50;;
11422;SDS011;5768;51.476;7.210;2024-03-23T03:59:31;6.13;;;2.30;;
11422;SDS011;5768;51.476;7.210;2024-03-23T04:04:33;7.85;;;2.70;;
11422;SDS011;5768;51.476;7.210;2024-03-23T04:09:37;7.90;;;2.30;;
11422;SDS011;5768;51.476;7.210;2024-03-23T04:14:39;4.57;;;1.63;;
11422;SDS011;5768;51.476;7.210;2024-03-23T04:19:41;5.50;;;2.10;;
11422;SDS011;5768;51.476;7.210;2024-03-23T04:24:46;6.70;;;2.40;;
11422;SDS011;5768;51.476;7.210;2024-03-23T04:29:48;6.80;;;2.43;;
11422;SDS011;5768;51.476;7.210;2024-03-23T04:34:51;4.77;;;2.00;;
11422;SDS011;5768;51.476;7.210;2024-03-23T04:39:56;4.93;;;2.20;;
11422;SDS011;5768;51.476;7.210;2024-03-23T04:44:58;6.13;;;2.37;;
11422;SDS011;5768;51.476;7.210;2024-03-23T04:50:00;4.73;;;3.00;;
11422;SDS011;5768;51.476;7.210;2024-03-23T04:55:05;9.30;;;3.37;;
11422;SDS011;5768;51.476;7.210;2024-03-23T05:00:08;9.67;;;3.80;;
11422;SDS011;5768;51.476;7.210;2024-03-23T05:05:17;7.67;;;3.10;;
11422;SDS011;5768;51.476;7.210;2024-03-23T05:10:20;6.43;;;3.77;;
11422;SDS011;5768;51.476;7.210;2024-03-23T05:15:23;7.00;;;3.07;;
11422;SDS011;5768;51.476;7.210;2024-03-23T05:20:25;6.93;;;2.50;;
11422;SDS011;5768;51.476;7.210;2024-03-23T05:25:29;6.87;;;2.57;;
11422;SDS011;5768;51.476;7.210;2024-03-23T05:30:31;6.10;;;3.60;;
11422;SDS011;5768;51.476;7.210;2024-03-23T05:35:34;8.20;;;3.60;;
11422;SDS011;5768;51.476;7.210;2024-03-23T05:40:37;10.33;;;4.83;;
11422;SDS011;5768;51.476;7.210;2024-03-23T05:45:40;8.73;;;5.73;;
11422;SDS011;5768;51.476;7.210;2024-03-23T05:50:42;10.00;;;7.00;;
11422;SDS011;5768;51.476;7.210;2024-03-23T05:55:46;10.93;;;7.80;;
11422;SDS011;5768;51.476;7.210;2024-03-23T06:00:49;13.57;;;7.80;;
11422;SDS011;5768;51.476;7.210;2024-03-23T06:05:59;10.47;;;5.93;;
11422;SDS011;5768;51.476;7.210;2024-03-23T06:11:02;10.93;;;6.40;;
11422;SDS011;5768;51.476;7.210;2024-03-23T06:16:06;10.90;;;6.10;;
11422;SDS011;5768;51.476;7.210;2024-03-23T06:21:12;9.00;;;4.50;;
11422;SDS011;5768;51.476;7.210;2024-03-23T06:26:17;10.23;;;5.10;;
11422;SDS011;5768;51.476;7.210;2024-03-23T06:31:19;9.60;;;4.83;;
11422;SDS011;5768;51.476;7.210;2024-03-23T06:36:21;10.30;;;5.53;;
11422;SDS011;5768;51.476;7.210;2024-03-23T06:41:25;9.77;;;6.67;;
11422;SDS011;5768;51.476;7.210;2024-03-23T06:46:27;14.47;;;7.10;;
11422;SDS011;5768;51.476;7.210;2024-03-23T06:51:30;9.50;;;6.00;;
11422;SDS011;5768;51.476;7.210;2024-03-23T06:56:33;10.03;;;7.03;;
11422;SDS011;5768;51.476;7.210;2024-03-23T07:01:36;12.73;;;9.00;;
11422;SDS011;5768;51.476;7.210;2024-03-23T07:06:42;16.60;;;9.27;;
11422;SDS011;5768;51.476;7.210;2024-03-23T07:11:46;11.93;;;8.80;;
11422;SDS011;5768;51.476;7.210;2024-03-23T07:16:48;11.20;;;7.70;;
11422;SDS011;5768;51.476;7.210;2024-03-23T07:21:50;12.87;;;9.13;;
11422;SDS011;5768;51.476;7.210;2024-03-23T07:26:54;12.93;;;7.57;;
11422;SDS011;5768;51.476;7.210;2024-03-23T07:31:58;9.43;;;6.93;;
11422;SDS011;5768;51.476;7.210;2024-03-23T07:37:00;13.70;;;9.77;;
11422;SDS011;5768;51.476;7.210;2024-03-23T07:42:04;10.07;;;6.40;;
11422;SDS011;5768;51.476;7.210;2024-03-23T07:47:06;13.57;;;7.50;;
11422;SDS011;5768;51.476;7.210;2024-03-23T07:52:09;7.47;;;4.50;;
11422;SDS011;5768;51.476;7.210;2024-03-23T07:57:12;13.20;;;8.57;;
11422;SDS011;5768;51.476;7.210;2024-03-23T08:02:15;7.37;;;5.77;;
11422;SDS011;5768;51.476;7.210;2024-03-23T08:07:17;9.60;;;5.60;;
11422;SDS011;5768;51.476;7.210;2024-03-23T08:12:21;7.90;;;4.73;;
11422;SDS011;5768;51.476;7.210;2024-03-23T08:17:23;11.07;;;6.53;;
11422;SDS011;5768;51.476;7.210;2024-03-23T08:22:25;7.43;;;4.93;;
11422;SDS011;5768;51.476;7.210;2024-03-23T08:27:29;14.70;;;5.67;;
11422;SDS011;5768;51.476;7.210;2024-03-23T08:32:31;10.13;;;4.33;;
11422;SDS011;5768;51.476;7.210;2024-03-23T08:37:33;7.33;;;4.17;;
11422;SDS011;5768;51.476;7.210;2024-03-23T08:42:37;9.03;;;4.27;;
11422;SDS011;5768;51.476;7.210;2024-03-23T08:47:40;9.37;;;4.33;;
11422;SDS011;5768;51.476;7.210;2024-03-23T08:52:42;9.97;;;4.00;;
11422;SDS011;5768;51.476;7.210;2024-03-23T08:57:46;5.93;;;3.07;;
11422;SDS011;5768;51.476;7.210;2024-03-23T09:02:48;8.70;;;3.67;;
11422;SDS011;5768;51.476;7.210;2024-03-23T09:07:51;5.13;;;2.40;;
11422;SDS011;5768;51.476;7.210;2024-03-23T09:12:55;6.07;;;2.77;;
11422;SDS011;5768;51.476;7.210;2024-03-23T09:17:58;5.90;;;2.50;;
11422;SDS011;5768;51.476;7.210;2024-03-23T09:23:01;3.27;;;2.10;;
11422;SDS011;5768;51.476;7.210;2024-03-23T09:28:04;2.77;;;1.83;;
11422;SDS011;5768;51.476;7.210;2024-03-23T09:33:09;6.13;;;2.43;;
11422;SDS011;5768;51.476;7.210;2024-03-23T09:38:11;6.37;;;3.00;;
11422;SDS011;5768;51.476;7.210;2024-03-23T09:43:15;4.43;;;2.00;;
11422;SDS011;5768;51.476;7.210;2024-03-23T09:48:17;3.67;;;2.00;;
11422;SDS011;5768;51.476;7.210;2024-03-23T09:53:20;7.17;;;2.70;;
11422;SDS011;5768;51.476;7.210;2024-03-23T09:58:24;4.63;;;2.63;;
11422;SDS011;5768;51.476;7.210;2024-03-23T10:03:26;4.80;;;2.80;;
11422;SDS011;5768;51.476;7.210;2024-03-23T10:08:29;3.00;;;1.63;;
11422;SDS011;5768;51.476;7.210;2024-03-23T10:13:34;2.27;;;1.87;;
11422;SDS011;5768;51.476;7.210;2024-03-23T10:18:37;4.47;;;2.20;;
11422;SDS011;5768;51.476;7.210;2024-03-23T10:23:41;6.43;;;2.30;;
11422;SDS011;5768;51.476;7.210;2024-03-23T10:28:52;2.73;;;1.83;;
11422;SDS011;5768;51.476;7.210;2024-03-23T10:33:58;3.80;;;1.63;;
11422;SDS011;5768;51.476;7.210;2024-03-23T10:39:01;1.67;;;1.13;;
11422;SDS011;5768;51.476;7.210;2024-03-23T10:44:05;4.43;;;2.13;;
11422;SDS011;5768;51.476;7.210;2024-03-23T10:49:08;4.20;;;1.50;;
11422;SDS011;5768;51.476;7.210;2024-03-23T10:54:10;5.53;;;1.70;;
11422;SDS011;5768;51.476;7.210;2024-03-23T10:59:15;3.83;;;1.85;;
11422;SDS011;5768;51.476;7.210;2024-03-23T11:04:29;3.53;;;1.48;;
11422;SDS011;5768;51.476;7.210;2024-03-23T11:09:39;0.83;;;0.60;;
11422;SDS011;5768;51.476;7.210;2024-03-23T11:14:46;2.97;;;0.73;;
11422;SDS011;5768;51.476;7.210;2024-03-23T11:19:53;2.10;;;0.93;;
11422;SDS011;5768;51.476;7.210;2024-03-23T11:24:57;1.70;;;0.67;;
11422;SDS011;5768;51.476;7.210;2024-03-23T11:30:10;1.53;;;0.60;;
11422;SDS011;5768;51.476;7.210;2024-03-23T11:35:24;2.20;;;1.10;;
11422;SDS011;5768;51.476;7.210;2024-03-23T11:40:28;2.23;;;1.00;;
11422;SDS011;5768;51.476;7.210;2024-03-23T11:45:35;3.00;;;1.47;;
11422;SDS011;5768;51.476;7.210;2024-03-23T11:50:40;1.10;;;0.97;;
11422;SDS011;5768;51.476;7.210;2024-03-23T11:55:47;1.50;;;1.10;;
11422;SDS011;5768;51.476;7.210;2024-03-23T12:00:55;2.63;;;1.80;;
11422;SDS011;5768;51.476;7.210;2024-03-23T12:05:59;4.20;;;1.80;;
11422;SDS011;5768;51.476;7.210;2024-03-23T12:11:06;4.83;;;1.40;;
11422;SDS011;5768;51.476;7.210;2024-03-23T12:16:13;2.00;;;1.27;;
11422;SDS011;5768;51.476;7.210;2024-03-23T12:21:17;1.77;;;1.20;;
11422;SDS011;5768;51.476;7.210;2024-03-23T12:26:20;1.27;;;0.90;;
11422;SDS011;5768;51.476;7.210;2024-03-23T12:31:24;2.80;;;1.10;;
11422;SDS011;5768;51.476;7.210;2024-03-23T12:36:27;1.37;;;0.90;;
11422;SDS011;5768;51.476;7.210;2024-03-23T12:41:29;1.90;;;1.20;;
11422;SDS011;5768;51.476;7.210;2024-03-23T12:46:32;2.20;;;1.40;;
11422;SDS011;5768;51.476;7.210;2024-03-23T12:51:34;1.27;;;1.00;;
11422;SDS011;5768;51.476;7.210;2024-03-23T12:56:37;3.33;;;1.33;;
11422;SDS011;5768;51.476;7.210;2024-03-23T13:01:41;3.83;;;1.30;;
11422;SDS011;5768;51.476;7.210;2024-03-23T13:06:44;4.63;;;1.60;;
11422;SDS011;5768;51.476;7.210;2024-03-23T13:11:46;2.03;;;1.30;;
11422;SDS011;5768;51.476;7.210;2024-03-23T13:16:50;4.97;;;1.93;;
11422;SDS011;5768;51.476;7.210;2024-03-23T13:21:52;2.80;;;1.40;;
11422;SDS011;5768;51.476;7.210;2024-03-23T13:26:55;1.80;;;1.07;;
11422;SDS011;5768;51.476;7.210;2024-03-23T13:32:00;2.77;;;1.73;;
11422;SDS011;5768;51.476;7.210;2024-03-23T13:37:02;3.30;;;1.60;;
11422;SDS011;5768;51.476;7.210;2024-03-23T13:42:07;1.37;;;1.00;;
11422;SDS011;5768;51.476;7.210;2024-03-23T13:47:11;1.27;;;0.80;;
11422;SDS011;5768;51.476;7.210;2024-03-23T13:52:13;0.77;;;0.77;;
11422;SDS011;5768;51.476;7.210;2024-03-23T13:57:16;2.93;;;1.10;;
11422;SDS011;5768;51.476;7.210;2024-03-23T14:02:22;3.60;;;1.33;;
11422;SDS011;5768;51.476;7.210;2024-03-23T14:07:24;1.60;;;1.27;;
11422;SDS011;5768;51.476;7.210;2024-03-23T14:12:27;3.83;;;1.33;;
11422;SDS011;5768;51.476;7.210;2024-03-23T14:17:30;1.77;;;0.83;;
11422;SDS011;5768;51.476;7.210;2024-03-23T14:22:32;2.15;;;0.90;;
11422;SDS011;5768;51.476;7.210;2024-03-23T14:27:34;1.67;;;1.08;;
11422;SDS011;5768;51.476;7.210;2024-03-23T14:32:38;2.58;;;1.05;;
11422;SDS011;5768;51.476;7.210;2024-03-23T14:37:41;1.95;;;1.00;;
11422;SDS011;5768;51.476;7.210;2024-03-23T14:42:43;2.50;;;1.05;;
11422;SDS011;5768;51.476;7.210;2024-03-23T14:47:47;1.42;;;1.00;;
11422;SDS011;5768;51.476;7.210;2024-03-23T14:52:49;1.48;;;1.00;;
11422;SDS011;5768;51.476;7.210;2024-03-23T14:57:52;0.95;;;0.85;;
11422;SDS011;5768;51.476;7.210;2024-03-23T15:02:56;1.08;;;0.70;;
11422;SDS011;5768;51.476;7.210;2024-03-23T15:07:58;1.45;;;0.88;;
11422;SDS011;5768;51.476;7.210;2024-03-23T15:13:00;3.63;;;1.10;;
11422;SDS011;5768;51.476;7.210;2024-03-23T15:18:04;2.92;;;1.10;;
11422;SDS011;5768;51.476;7.210;2024-03-23T15:23:07;2.35;;;1.17;;
11422;SDS011;5768;51.476;7.210;2024-03-23T15:28:09;2.30;;;1.10;;
11422;SDS011;5768;51.476;7.210;2024-03-23T15:33:12;3.22;;;1.35;;
11422;SDS011;5768;51.476;7.210;2024-03-23T15:38:15;1.90;;;1.00;;
11422;SDS011;5768;51.476;7.210;2024-03-23T15:43:18;2.67;;;1.15;;
11422;SDS011;5768;51.476;7.210;2024-03-23T15:48:22;2.65;;;1.23;;
11422;SDS011;5768;51.476;7.210;2024-03-23T15:53:26;2.03;;;1.10;;
11422;SDS011;5768;51.476;7.210;2024-03-23T15:58:29;2.50;;;1.42;;
11422;SDS011;5768;51.476;7.210;2024-03-23T16:03:36;2.22;;;1.27;;
11422;SDS011;5768;51.476;7.210;2024-03-23T16:08:39;1.45;;;1.27;;
11422;SDS011;5768;51.476;7.210;2024-03-23T16:13:41;2.30;;;1.13;;
11422;SDS011;5768;51.476;7.210;2024-03-23T16:18:45;2.97;;;1.63;;
11422;SDS011;5768;51.476;7.210;2024-03-23T16:23:47;2.65;;;1.20;;
11422;SDS011;5768;51.476;7.210;2024-03-23T16:28:49;2.20;;;1.20;;
11422;SDS011;5768;51.476;7.210;2024-03-23T16:33:53;3.75;;;1.58;;
11422;SDS011;5768;51.476;7.210;2024-03-23T16:38:55;1.70;;;1.15;;
11422;SDS011;5768;51.476;7.210;2024-03-23T16:43:58;2.13;;;1.02;;
11422;SDS011;5768;51.476;7.210;2024-03-23T16:49:01;3.80;;;1.70;;
11422;SDS011;5768;51.476;7.210;2024-03-23T16:54:03;2.80;;;1.42;;
11422;SDS011;5768;51.476;7.210;2024-03-23T16:59:07;2.95;;;1.40;;
11422;SDS011;5768;51.476;7.210;2024-03-23T17:04:10;1.88;;;0.80;;
11422;SDS011;5768;51.476;7.210;2024-03-23T17:09:12;2.15;;;1.00;;
11422;SDS011;5768;51.476;7.210;2024-03-23T17:14:16;0.98;;;0.75;;
11422;SDS011;5768;51.476;7.210;2024-03-23T17:19:19;1.88;;;1.00;;
11422;SDS011;5768;51.476;7.210;2024-03-23T17:24:22;2.08;;;1.08;;
11422;SDS011;5768;51.476;7.210;2024-03-23T17:29:24;2.83;;;1.10;;
11422;SDS011;5768;51.476;7.210;2024-03-23T17:34:28;1.80;;;0.60;;
11422;SDS011;5768;51.476;7.210;2024-03-23T17:39:30;1.47;;;0.70;;
11422;SDS011;5768;51.476;7.210;2024-03-23T17:44:32;1.90;;;1.23;;
11422;SDS011;5768;51.476;7.210;2024-03-23T17:49:36;1.30;;;1.10;;
11422;SDS011;5768;51.476;7.210;2024-03-23T17:54:38;1.70;;;1.00;;
11422;SDS011;5768;51.476;7.210;2024-03-23T17:59:40;2.53;;;1.20;;
11422;SDS011;5768;51.476;7.210;2024-03-23T18:04:44;3.67;;;1.20;;
11422;SDS011;5768;51.476;7.210;2024-03-23T18:09:46;3.53;;;1.33;;
11422;SDS011;5768;51.476;7.210;2024-03-23T18:14:48;2.23;;;1.53;;
11422;SDS011;5768;51.476;7.210;2024-03-23T18:19:52;4.10;;;2.27;;
11422;SDS011;5768;51.476;7.210;2024-03-23T18:24:54;3.30;;;1.80;;
11422;SDS011;5768;51.476;7.210;2024-03-23T18:29:57;1.83;;;1.13;;
11422;SDS011;5768;51.476;7.210;2024-03-23T18:35:01;1.17;;;0.90;;
11422;SDS011;5768;51.476;7.210;2024-03-23T18:40:05;3.57;;;1.33;;
11422;SDS011;5768;51.476;7.210;2024-03-23T18:45:09;7.53;;;1.43;;
11422;SDS011;5768;51.476;7.210;2024-03-23T18:50:13;2.43;;;1.43;;
11422;SDS011;5768;51.476;7.210;2024-03-23T18:55:16;2.13;;;1.07;;
11422;SDS011;5768;51.476;7.210;2024-03-23T19:00:19;4.47;;;1.70;;
11422;SDS011;5768;51.476;7.210;2024-03-23T19:05:23;2.00;;;1.43;;
11422;SDS011;5768;51.476;7.210;2024-03-23T19:10:26;5.23;;;1.90;;
11422;SDS011;5768;51.476;7.210;2024-03-23T19:15:33;3.57;;;1.83;;
11422;SDS011;5768;51.476;7.210;2024-03-23T19:20:37;3.50;;;1.70;;
11422;SDS011;5768;51.476;7.210;2024-03-23T19:25:39;3.00;;;1.67;;
11422;SDS011;5768;51.476;7.210;2024-03-23T19:30:43;4.63;;;2.80;;
11422;SDS011;5768;51.476;7.210;2024-03-23T19:35:53;2.33;;;1.70;;
11422;SDS011;5768;51.476;7.210;2024-03-23T19:40:58;1.97;;;1.30;;
11422;SDS011;5768;51.476;7.210;2024-03-23T19:46:04;1.67;;;1.27;;
11422;SDS011;5768;51.476;7.210;2024-03-23T19:51:22;2.23;;;1.63;;
11422;SDS011;5768;51.476;7.210;2024-03-23T19:56:27;3.50;;;1.30;;
11422;SDS011;5768;51.476;7.210;2024-03-23T20:01:30;1.87;;;1.40;;
11422;SDS011;5768;51.476;7.210;2024-03-23T20:06:33;2.80;;;1.40;;
11422;SDS011;5768;51.476;7.210;2024-03-23T20:11:39;1.77;;;1.00;;
11422;SDS011;5768;51.476;7.210;2024-03-23T20:16:42;2.53;;;1.90;;
11422;SDS011;5768;51.476;7.210;2024-03-23T20:21:46;3.37;;;2.30;;
11422;SDS011;5768;51.476;7.210;2024-03-23T20:26:48;5.50;;;2.33;;
11422;SDS011;5768;51.476;7.210;2024-03-23T20:31:50;2.50;;;1.90;;
11422;SDS011;5768;51.476;7.210;2024-03-23T20:36:54;3.17;;;1.87;;
11422;SDS011;5768;51.476;7.210;2024-03-23T20:41:57;1.90;;;1.70;;
11422;SDS011;5768;51.476;7.210;2024-03-23T20:46:59;4.03;;;2.03;;
11422;SDS011;5768;51.476;7.210;2024-03-23T20:52:03;2.67;;;1.90;;
11422;SDS011;5768;51.476;7.210;2024-03-23T20:57:08;3.40;;;2.30;;
11422;SDS011;5768;51.476;7.210;2024-03-23T21:02:11;3.07;;;2.40;;
11422;SDS011;5768;51.476;7.210;2024-03-23T21:07:15;3.30;;;2.90;;
11422;SDS011;5768;51.476;7.210;2024-03-23T21:12:35;3.73;;;3.40;;
11422;SDS011;5768;51.476;7.210;2024-03-23T21:17:54;4.17;;;3.70;;
11422;SDS011;5768;51.476;7.210;2024-03-23T21:22:58;11.03;;;9.87;;
11422;SDS011;5768;51.476;7.210;2024-03-23T21:28:01;4.90;;;4.50;;
11422;SDS011;5768;51.476;7.210;2024-03-23T21:33:11;5.77;;;4.90;;
11422;SDS011;5768;51.476;7.210;2024-03-23T21:38:19;6.10;;;5.23;;
11422;SDS011;5768;51.476;7.210;2024-03-23T21:43:25;6.00;;;5.40;;
11422;SDS011;5768;51.476;7.210;2024-03-23T21:48:34;6.00;;;4.93;;
11422;SDS011;5768;51.476;7.210;2024-03-23T21:53:38;5.20;;;4.10;;
11422;SDS011;5768;51.476;7.210;2024-03-23T21:58:44;5.13;;;3.70;;
11422;SDS011;5768;51.476;7.210;2024-03-23T22:03:46;5.77;;;3.90;;
11422;SDS011;5768;51.476;7.210;2024-03-23T22:08:53;5.50;;;4.20;;
11422;SDS011;5768;51.476;7.210;2024-03-23T22:13:55;6.10;;;4.80;;
11422;SDS011;5768;51.476;7.210;2024-03-23T22:18:59;5.07;;;3.97;;
11422;SDS011;5768;51.476;7.210;2024-03-23T22:24:05;5.83;;;3.80;;
11422;SDS011;5768;51.476;7.210;2024-03-23T22:29:08;5.97;;;3.97;;
11422;SDS011;5768;51.476;7.210;2024-03-23T22:34:10;5.07;;;3.63;;
11422;SDS011;5768;51.476;7.210;2024-03-23T22:39:15;4.07;;;3.40;;
11422;SDS011;5768;51.476;7.210;2024-03-23T22:44:28;4.90;;;3.57;;
11422;SDS011;5768;51.476;7.210;2024-03-23T22:49:34;6.80;;;3.67;;
11422;SDS011;5768;51.476;7.210;2024-03-23T22:54:40;4.97;;;3.27;;
11422;SDS011;5768;51.476;7.210;2024-03-23T22:59:49;4.43;;;2.73;;
11422;SDS011;5768;51.476;7.210;2024-03-23T23:05:09;4.20;;;2.50;;
11422;SDS011;5768;51.476;7.210;2024-03-23T23:10:13;4.80;;;2.83;;
11422;SDS011;5768;51.476;7.210;2024-03-23T23:15:16;5.30;;;2.33;;
11422;SDS011;5768;51.476;7.210;2024-03-23T23:20:19;3.57;;;2.07;;
11422;SDS011;5768;51.476;7.210;2024-03-23T23:25:23;3.90;;;2.50;;
11422;SDS011;5768;51.476;7.210;2024-03-23T23:30:32;2.90;;;2.07;;
11422;SDS011;5768;51.476;7.210;2024-03-23T23:35:35;3.60;;;1.93;;
11422;SDS011;5768;51.476;7.210;2024-03-23T23:40:39;2.77;;;1.90;;
11422;SDS011;5768;51.476;7.210;2024-03-23T23:45:45;5.10;;;2.60;;
11422;SDS011;5768;51.476;7.210;2024-03-23T23:50:49;5.57;;;2.73;;
11422;SDS011;5768;51.476;7.210;2024-03-23T23:55:54;3.60;;;2.30;;
